Time;durP1;ratioP1;P1;durP2;ratioP2;P2;SDS_P1;SDS_P2;PMS_P1;PMS_P2;Temp;Humidity;BMP_temperature;BMP_pressure;BME280_temperature;BME280_humidity;BME280_pressure;Samples;Min_cycle;Max_cycle;Signal;HPM_P1;HPM_P2
2023/10/19 00:02:51;;;;;;;10.07;6.20;;;12.40;99.90;;;;;;5010422;28;20204;-78
2023/10/19 00:05:19;;;;;;;6.22;5.28;;;12.40;99.90;;;;;;5011093;28;20206;-78
2023/10/19 00:07:46;;;;;;;7.03;5.50;;;12.40;99.90;;;;;;5009465;28;20684;-78
2023/10/19 00:10:16;;;;;;;5.78;5.15;;;12.40;99.90;;;;;;5016933;28;20673;-78
2023/10/19 00:12:43;;;;;;;6.60;5.40;;;12.50;99.90;;;;;;5015670;28;20558;-78
2023/10/19 00:15:14;;;;;;;6.10;5.50;;;12.50;99.90;;;;;;4996262;28;20195;-78
2023/10/19 00:17:44;;;;;;;7.13;6.07;;;12.60;99.90;;;;;;5008593;28;20192;-78
2023/10/19 00:20:49;;;;;;;7.95;5.88;;;12.60;99.90;;;;;;4995937;28;20681;-78
2023/10/19 00:23:18;;;;;;;5.28;4.78;;;12.60;99.90;;;;;;5013136;28;20203;-78
2023/10/19 00:25:50;;;;;;;5.82;5.10;;;12.70;99.90;;;;;;4996732;28;20549;-78
2023/10/19 00:28:17;;;;;;;6.00;5.40;;;12.70;99.90;;;;;;5006658;28;20207;-79
2023/10/19 00:30:47;;;;;;;5.28;4.82;;;12.70;99.90;;;;;;5007790;28;20219;-78
2023/10/19 00:33:19;;;;;;;6.03;5.43;;;12.80;99.90;;;;;;5015003;28;20200;-78
2023/10/19 00:35:50;;;;;;;6.07;5.47;;;12.80;99.90;;;;;;5013639;28;20218;-78
2023/10/19 00:38:27;;;;;;;6.65;5.60;;;12.80;99.90;;;;;;5008050;28;20203;-78
2023/10/19 00:41:03;;;;;;;8.40;5.80;;;12.80;99.90;;;;;;4999540;28;20222;-78
2023/10/19 00:43:34;;;;;;;5.68;5.18;;;12.90;99.90;;;;;;5011223;28;20681;-78
2023/10/19 00:46:08;;;;;;;6.20;5.60;;;12.90;99.90;;;;;;5010471;28;20215;-78
2023/10/19 00:48:36;;;;;;;5.65;5.10;;;12.90;99.90;;;;;;5011007;28;20216;-78
2023/10/19 00:51:09;;;;;;;6.57;5.87;;;12.90;99.90;;;;;;5011739;28;20220;-78
2023/10/19 00:53:39;;;;;;;6.22;5.65;;;12.90;99.90;;;;;;5004320;28;20204;-78
2023/10/19 00:56:10;;;;;;;8.17;5.90;;;12.90;99.90;;;;;;5007810;28;20200;-78
2023/10/19 00:58:41;;;;;;;6.80;6.10;;;12.90;99.90;;;;;;4992060;28;20195;-78
2023/10/19 01:01:09;;;;;;;6.97;6.30;;;13.00;99.90;;;;;;5010969;28;20716;-78
2023/10/19 01:03:39;;;;;;;6.78;6.05;;;13.00;99.90;;;;;;5009424;28;20195;-78
2023/10/19 01:06:10;;;;;;;6.28;5.68;;;13.00;99.90;;;;;;5010589;28;20200;-78
2023/10/19 01:08:45;;;;;;;6.43;5.77;;;13.00;99.90;;;;;;5008768;28;20226;-78
2023/10/19 01:11:15;;;;;;;7.13;6.43;;;13.00;99.90;;;;;;5001051;28;20219;-78
2023/10/19 01:13:46;;;;;;;6.90;6.20;;;13.00;99.90;;;;;;5016531;28;20200;-78
2023/10/19 01:16:20;;;;;;;6.85;6.15;;;13.10;99.90;;;;;;4998201;28;20199;-78
2023/10/19 01:18:50;;;;;;;6.47;5.78;;;13.10;99.90;;;;;;5015953;28;20184;-78
2023/10/19 01:21:21;;;;;;;6.40;5.80;;;13.10;99.90;;;;;;5015916;28;20227;-78
2023/10/19 01:23:50;;;;;;;6.88;6.18;;;13.10;99.90;;;;;;5018482;28;20191;-78
2023/10/19 01:26:22;;;;;;;7.55;6.03;;;13.10;99.90;;;;;;5017202;28;20569;-78
2023/10/19 01:28:52;;;;;;;6.90;6.20;;;13.10;99.90;;;;;;5015096;28;20231;-78
2023/10/19 01:31:30;;;;;;;7.22;6.38;;;13.20;99.90;;;;;;5003586;28;20250;-78
2023/10/19 01:34:00;;;;;;;6.60;5.70;;;13.20;99.90;;;;;;5017807;28;20214;-78
2023/10/19 01:36:28;;;;;;;6.80;6.20;;;13.20;99.90;;;;;;5015813;28;20204;-78
2023/10/19 01:39:00;;;;;;;6.32;5.72;;;13.20;99.90;;;;;;5014178;28;20192;-78
2023/10/19 01:41:31;;;;;;;6.22;5.35;;;13.20;99.90;;;;;;4998454;28;20219;-78
2023/10/19 01:44:04;;;;;;;5.75;5.22;;;13.30;99.90;;;;;;5013177;28;20199;-78
2023/10/19 01:46:33;;;;;;;6.57;5.93;;;13.30;99.90;;;;;;5006896;28;20203;-78
2023/10/19 01:49:02;;;;;;;7.32;5.20;;;13.30;99.90;;;;;;4988190;28;20721;-78
2023/10/19 01:51:32;;;;;;;7.75;5.60;;;13.30;99.90;;;;;;5017171;28;20223;-78
2023/10/19 01:54:00;;;;;;;6.03;5.47;;;13.30;99.90;;;;;;5027830;28;20654;-78
2023/10/19 01:56:28;;;;;;;6.28;4.85;;;13.40;99.90;;;;;;4995813;28;20207;-78
2023/10/19 01:58:57;;;;;;;6.60;5.53;;;13.50;99.90;;;;;;5029643;28;20196;-78
2023/10/19 02:01:28;;;;;;;5.47;4.97;;;13.50;99.90;;;;;;5022311;28;20219;-78
2023/10/19 02:03:59;;;;;;;6.13;5.53;;;13.50;99.90;;;;;;5014384;28;20696;-78
2023/10/19 02:06:27;;;;;;;6.03;5.15;;;13.60;99.90;;;;;;5010544;28;20211;-78
2023/10/19 02:09:00;;;;;;;7.18;6.43;;;13.70;99.90;;;;;;5013513;28;20224;-78
2023/10/19 02:11:29;;;;;;;6.35;5.75;;;13.70;99.90;;;;;;5012407;28;20219;-78
2023/10/19 02:13:59;;;;;;;7.20;5.72;;;13.70;99.90;;;;;;5001980;28;20588;-78
2023/10/19 02:16:29;;;;;;;5.93;5.35;;;13.70;99.90;;;;;;4994195;28;20194;-78
2023/10/19 02:18:56;;;;;;;6.85;5.95;;;13.70;99.90;;;;;;5014505;28;20681;-78
2023/10/19 02:21:27;;;;;;;5.68;5.18;;;13.80;99.90;;;;;;5010429;28;20226;-78
2023/10/19 02:23:53;;;;;;;6.05;5.40;;;13.80;99.90;;;;;;5011910;28;20200;-78
2023/10/19 02:26:22;;;;;;;6.75;6.13;;;13.80;99.90;;;;;;4996085;28;20195;-78
2023/10/19 02:28:51;;;;;;;5.70;5.10;;;14.00;99.90;;;;;;5017887;28;20212;-78
2023/10/19 02:31:21;;;;;;;7.40;5.25;;;13.90;99.90;;;;;;5013528;28;20215;-78
2023/10/19 02:33:51;;;;;;;6.00;4.97;;;14.00;99.90;;;;;;5013072;28;20204;-78
2023/10/19 02:36:20;;;;;;;7.57;5.25;;;14.10;99.90;;;;;;5015921;28;20210;-78
2023/10/19 02:38:48;;;;;;;5.00;4.55;;;14.10;99.90;;;;;;5005936;28;20194;-78
2023/10/19 02:41:17;;;;;;;5.20;4.70;;;14.10;99.90;;;;;;5009622;28;20226;-78
2023/10/19 02:43:46;;;;;;;5.47;3.85;;;14.10;99.90;;;;;;5017614;28;20191;-78
2023/10/19 02:46:17;;;;;;;4.82;4.07;;;14.20;99.90;;;;;;5006552;28;20196;-78
2023/10/19 02:48:44;;;;;;;4.78;3.92;;;14.20;99.90;;;;;;5010956;28;20215;-78
2023/10/19 02:51:12;;;;;;;4.32;3.83;;;14.20;99.90;;;;;;5004132;28;20216;-78
2023/10/19 02:53:42;;;;;;;4.93;3.85;;;14.30;99.90;;;;;;5014382;28;20493;-78
2023/10/19 02:56:15;;;;;;;3.65;3.35;;;14.30;99.90;;;;;;5011236;28;20196;-78
2023/10/19 02:58:43;;;;;;;6.40;3.95;;;14.30;99.90;;;;;;4987882;28;20192;-78
2023/10/19 03:01:21;;;;;;;4.22;3.28;;;14.30;99.90;;;;;;5011309;28;20211;-78
2023/10/19 03:03:51;;;;;;;5.05;3.30;;;14.30;99.90;;;;;;5015989;28;20202;-78
2023/10/19 03:06:21;;;;;;;4.88;3.03;;;14.30;99.90;;;;;;5017645;28;20191;-78
2023/10/19 03:08:57;;;;;;;3.60;2.80;;;14.30;99.90;;;;;;5012943;28;20224;-78
2023/10/19 03:11:24;;;;;;;3.20;2.90;;;14.30;99.90;;;;;;5012898;28;20581;-78
2023/10/19 03:13:52;;;;;;;3.33;2.70;;;14.30;99.90;;;;;;5017487;28;20684;-78
2023/10/19 03:16:21;;;;;;;3.85;2.75;;;14.40;99.90;;;;;;4997750;28;20211;-78
2023/10/19 03:18:49;;;;;;;6.55;3.03;;;14.40;99.90;;;;;;5014123;28;20199;-78
2023/10/19 03:21:16;;;;;;;3.50;2.72;;;14.40;99.90;;;;;;5011810;28;20235;-78
2023/10/19 03:23:44;;;;;;;3.65;2.78;;;14.40;99.90;;;;;;4997272;28;20207;-78
2023/10/19 03:26:23;;;;;;;4.70;2.72;;;14.40;99.90;;;;;;4998212;28;20214;-78
2023/10/19 03:28:54;;;;;;;3.47;2.40;;;14.40;99.90;;;;;;5007125;28;20211;-78
2023/10/19 03:31:25;;;;;;;3.42;2.53;;;14.40;99.90;;;;;;5013996;28;20215;-78
2023/10/19 03:33:59;;;;;;;2.60;2.40;;;14.40;99.90;;;;;;5013962;28;20214;-78
2023/10/19 03:36:27;;;;;;;2.60;2.40;;;14.40;99.90;;;;;;5010554;28;20207;-78
2023/10/19 03:38:59;;;;;;;3.83;2.58;;;14.40;99.90;;;;;;4996280;28;20203;-78
2023/10/19 03:41:30;;;;;;;2.70;2.22;;;14.40;99.90;;;;;;5010704;28;20227;-78
2023/10/19 03:43:58;;;;;;;3.58;2.30;;;14.40;99.90;;;;;;4996828;28;20203;-78
2023/10/19 03:46:31;;;;;;;2.25;2.05;;;14.40;99.90;;;;;;4997535;28;20195;-78
2023/10/19 03:49:04;;;;;;;3.08;2.30;;;14.50;99.90;;;;;;5006224;28;20221;-78
2023/10/19 03:51:40;;;;;;;2.92;2.25;;;14.50;99.90;;;;;;5012768;28;20224;-78
2023/10/19 03:54:20;;;;;;;3.15;2.22;;;14.60;99.90;;;;;;5014923;28;20196;-78
2023/10/19 03:56:50;;;;;;;5.13;2.13;;;14.60;99.90;;;;;;4997083;28;20211;-78
2023/10/19 03:59:18;;;;;;;3.20;2.03;;;14.50;99.90;;;;;;5004674;28;20207;-78
2023/10/19 04:01:46;;;;;;;3.92;1.90;;;14.50;99.90;;;;;;5002462;28;20227;-78
2023/10/19 04:04:16;;;;;;;4.65;2.30;;;14.50;99.90;;;;;;4993724;28;20196;-78
2023/10/19 04:06:47;;;;;;;3.10;2.05;;;14.50;99.90;;;;;;5012370;28;20200;-78
2023/10/19 04:09:17;;;;;;;2.60;2.00;;;14.50;99.90;;;;;;5013758;28;20223;-78
2023/10/19 04:11:49;;;;;;;3.35;2.10;;;14.50;99.90;;;;;;5013047;28;20215;-78
2023/10/19 04:14:17;;;;;;;2.00;1.80;;;14.60;99.90;;;;;;5012789;28;20206;-78
2023/10/19 04:16:48;;;;;;;2.35;1.90;;;14.60;99.90;;;;;;5017218;28;20191;-78
2023/10/19 04:19:16;;;;;;;2.47;1.90;;;14.60;99.90;;;;;;4996721;28;20204;-78
2023/10/19 04:21:46;;;;;;;2.70;1.90;;;14.60;99.90;;;;;;5008001;28;20242;-78
2023/10/19 04:24:14;;;;;;;3.22;1.83;;;14.60;99.90;;;;;;5012420;28;20268;-78
2023/10/19 04:26:42;;;;;;;3.08;1.83;;;14.60;99.90;;;;;;5014989;28;20200;-78
2023/10/19 04:29:11;;;;;;;3.00;1.70;;;14.60;99.90;;;;;;5014896;28;20219;-78
2023/10/19 04:31:42;;;;;;;2.80;2.15;;;14.60;99.90;;;;;;5011770;28;20716;-78
2023/10/19 04:34:12;;;;;;;2.80;1.58;;;14.70;99.90;;;;;;5008696;28;20211;-78
2023/10/19 04:36:39;;;;;;;2.60;1.75;;;14.70;99.90;;;;;;5011873;28;20199;-78
2023/10/19 04:39:11;;;;;;;3.78;2.03;;;14.70;99.90;;;;;;5013439;28;20203;-78
2023/10/19 04:41:41;;;;;;;2.38;1.65;;;14.70;99.90;;;;;;4999757;28;20223;-78
2023/10/19 04:44:09;;;;;;;2.67;1.80;;;14.80;99.90;;;;;;5022166;28;20211;-78
2023/10/19 04:46:37;;;;;;;3.78;2.05;;;14.70;99.90;;;;;;5001360;28;20193;-78
2023/10/19 04:49:04;;;;;;;3.15;1.70;;;14.70;99.90;;;;;;4998030;28;20216;-78
2023/10/19 04:51:36;;;;;;;3.85;1.63;;;14.70;99.90;;;;;;5007330;28;20223;-78
2023/10/19 04:54:03;;;;;;;2.78;1.67;;;14.80;99.90;;;;;;4988394;28;20570;-78
2023/10/19 04:56:32;;;;;;;2.72;1.52;;;14.80;99.90;;;;;;5010357;28;20189;-78
2023/10/19 04:58:59;;;;;;;3.05;1.77;;;14.80;99.90;;;;;;5006085;28;20208;-78
2023/10/19 05:01:28;;;;;;;2.83;1.75;;;14.70;99.90;;;;;;5008211;28;20216;-79
2023/10/19 05:03:55;;;;;;;2.75;2.00;;;14.80;99.90;;;;;;5008002;28;20305;-78
2023/10/19 05:06:23;;;;;;;2.05;1.60;;;14.80;99.90;;;;;;5012576;28;20199;-79
2023/10/19 05:08:52;;;;;;;2.05;1.55;;;14.70;99.90;;;;;;5014138;28;20202;-79
2023/10/19 05:11:19;;;;;;;3.78;1.35;;;14.70;99.90;;;;;;4996148;28;20223;-79
2023/10/19 05:13:47;;;;;;;3.17;1.40;;;14.70;99.90;;;;;;5019109;28;20187;-79
2023/10/19 05:16:17;;;;;;;2.25;1.42;;;14.70;99.90;;;;;;5021039;28;20650;-80
2023/10/19 05:18:45;;;;;;;3.30;1.63;;;14.70;99.90;;;;;;5012191;28;20282;-80
2023/10/19 05:21:13;;;;;;;2.25;1.55;;;14.70;99.90;;;;;;4999191;28;20219;-81
2023/10/19 05:24:00;;;;;;;1.85;1.65;;;14.80;99.90;;;;;;4998828;28;20211;-80
2023/10/19 05:26:30;;;;;;;2.13;1.55;;;14.70;99.90;;;;;;4992968;28;20206;-79
2023/10/19 05:28:58;;;;;;;3.75;1.73;;;14.70;99.90;;;;;;4997061;28;20214;-82
2023/10/19 05:31:27;;;;;;;1.85;1.55;;;14.70;99.90;;;;;;4998822;28;20225;-83
2023/10/19 05:34:02;;;;;;;4.80;1.70;;;14.70;99.90;;;;;;5015057;28;20192;-82
2023/10/19 05:36:29;;;;;;;3.78;1.67;;;14.70;99.90;;;;;;4995804;28;20202;-82
2023/10/19 05:39:07;;;;;;;2.38;1.60;;;14.70;99.90;;;;;;5008937;28;20204;-82
2023/10/19 05:41:39;;;;;;;2.58;1.60;;;14.70;99.90;;;;;;5012547;28;20224;-82
2023/10/19 05:44:14;;;;;;;2.85;1.70;;;14.70;99.90;;;;;;5016359;28;20219;-81
2023/10/19 05:47:05;;;;;;;3.55;2.03;;;14.60;99.90;;;;;;5009958;28;20551;-82
2023/10/19 05:49:34;;;;;;;3.00;1.55;;;14.60;99.90;;;;;;5009204;28;20709;-81
2023/10/19 05:52:03;;;;;;;3.95;1.70;;;14.60;99.90;;;;;;4994698;28;20231;-81
2023/10/19 05:54:32;;;;;;;3.75;1.70;;;14.50;99.90;;;;;;5011472;28;20216;-81
2023/10/19 05:56:59;;;;;;;2.53;1.73;;;14.50;99.90;;;;;;4993515;28;20199;-82
2023/10/19 05:59:29;;;;;;;3.60;1.90;;;14.60;99.90;;;;;;5019701;28;20211;-80
2023/10/19 06:01:56;;;;;;;4.75;1.90;;;14.60;99.90;;;;;;4995813;28;20227;-82
2023/10/19 06:04:24;;;;;;;2.35;1.65;;;14.70;99.90;;;;;;5001050;28;20211;-82
2023/10/19 06:06:51;;;;;;;2.35;1.70;;;14.70;99.90;;;;;;5015585;28;20202;-81
2023/10/19 06:09:20;;;;;;;3.72;1.73;;;14.70;99.90;;;;;;5009633;28;20211;-82
2023/10/19 06:11:49;;;;;;;4.35;1.65;;;14.60;99.90;;;;;;4999481;28;20235;-82
2023/10/19 06:14:17;;;;;;;7.88;2.95;;;14.60;99.90;;;;;;5017783;28;20227;-82
2023/10/19 06:16:44;;;;;;;2.92;1.75;;;14.60;99.90;;;;;;5016355;28;20206;-81
2023/10/19 06:19:12;;;;;;;2.38;1.63;;;14.60;99.90;;;;;;5021091;28;20209;-81
2023/10/19 06:21:39;;;;;;;1.92;1.60;;;14.50;99.90;;;;;;5018439;28;20234;-82
2023/10/19 06:24:18;;;;;;;2.55;1.70;;;14.60;99.90;;;;;;5016622;28;20203;-81
2023/10/19 06:26:47;;;;;;;4.55;1.80;;;14.60;99.90;;;;;;5096695;22;20202;-81
2023/10/19 06:29:19;;;;;;;2.47;1.77;;;14.60;99.90;;;;;;5072016;28;20210;-80
2023/10/19 06:31:46;;;;;;;4.45;2.38;;;14.60;99.90;;;;;;5075290;28;20226;-81
2023/10/19 06:34:14;;;;;;;3.78;1.90;;;14.60;99.90;;;;;;5083250;28;20205;-80
2023/10/19 06:36:42;;;;;;;4.75;1.90;;;14.60;99.90;;;;;;5097275;28;20224;-81
2023/10/19 06:39:09;;;;;;;4.65;2.20;;;14.60;99.90;;;;;;5106665;28;20200;-81
2023/10/19 06:41:37;;;;;;;4.68;2.05;;;14.70;99.90;;;;;;5085527;28;20203;-81
2023/10/19 06:44:05;;;;;;;3.15;2.25;;;14.70;99.90;;;;;;5084626;28;20212;-82
2023/10/19 06:46:35;;;;;;;6.65;2.22;;;14.70;99.90;;;;;;5093027;28;20231;-81
2023/10/19 06:49:03;;;;;;;5.22;2.15;;;14.70;99.90;;;;;;5082622;28;20519;-81
2023/10/19 06:51:32;;;;;;;3.17;1.83;;;14.60;99.90;;;;;;5082868;28;20224;-81
2023/10/19 06:53:59;;;;;;;4.47;2.05;;;14.70;99.90;;;;;;5076548;28;20197;-82
2023/10/19 06:56:27;;;;;;;2.35;1.70;;;14.70;99.90;;;;;;5085233;28;20689;-81
2023/10/19 06:58:54;;;;;;;2.35;1.85;;;14.70;99.90;;;;;;5105348;27;20198;-81
2023/10/19 07:01:31;;;;;;;5.75;1.98;;;14.70;99.90;;;;;;5077026;28;20533;-81
2023/10/19 07:04:20;;;;;;;4.38;2.28;;;14.70;99.90;;;;;;5075858;28;20201;-81
2023/10/19 07:06:49;;;;;;;3.47;1.98;;;14.70;99.90;;;;;;5075639;28;20208;-81
2023/10/19 07:09:19;;;;;;;11.52;4.53;;;14.70;99.90;;;;;;5075422;28;20214;-79
2023/10/19 07:11:46;;;;;;;10.30;4.63;;;14.80;99.90;;;;;;5080492;28;20243;-81
2023/10/19 07:14:14;;;;;;;4.13;1.90;;;15.10;99.90;;;;;;5094970;28;20212;-80
2023/10/19 07:16:42;;;;;;;3.83;2.10;;;14.90;99.90;;;;;;5069936;28;20229;-80
2023/10/19 07:19:11;;;;;;;2.95;1.90;;;14.80;99.90;;;;;;5056067;28;20198;-80
2023/10/19 07:21:43;;;;;;;2.42;2.10;;;14.80;99.90;;;;;;5070301;28;20209;-80
2023/10/19 07:24:11;;;;;;;5.03;2.20;;;14.70;99.90;;;;;;5060608;28;20202;-80
2023/10/19 07:26:51;;;;;;;6.53;2.33;;;14.70;99.90;;;;;;5059006;28;20233;-80
2023/10/19 07:29:19;;;;;;;2.90;2.15;;;14.70;99.90;;;;;;5055500;28;20202;-79
2023/10/19 07:31:46;;;;;;;6.93;2.20;;;14.70;99.90;;;;;;5073662;28;20186;-81
2023/10/19 07:34:15;;;;;;;2.50;1.98;;;14.70;99.90;;;;;;5048699;28;20221;-82
2023/10/19 07:36:48;;;;;;;3.55;2.17;;;14.70;99.90;;;;;;5061597;28;20248;-84
2023/10/19 07:39:22;;;;;;;3.15;1.95;;;14.70;99.90;;;;;;5060017;28;20196;-83
2023/10/19 07:41:50;;;;;;;4.47;1.88;;;14.80;99.90;;;;;;5059363;28;20212;-80
2023/10/19 07:44:18;;;;;;;4.45;2.22;;;14.80;99.90;;;;;;5051027;28;20205;-82
2023/10/19 07:46:45;;;;;;;5.00;2.15;;;14.90;99.90;;;;;;5056248;28;20218;-81
2023/10/19 07:49:14;;;;;;;3.47;1.77;;;14.90;99.90;;;;;;5061556;28;20201;-82
2023/10/19 07:51:49;;;;;;;4.50;1.85;;;14.90;99.90;;;;;;5069290;28;20201;-82
2023/10/19 07:54:17;;;;;;;7.22;2.35;;;14.90;99.90;;;;;;5053155;28;20201;-82
2023/10/19 07:56:45;;;;;;;4.63;2.30;;;14.90;99.90;;;;;;5066846;28;20213;-83
2023/10/19 07:59:13;;;;;;;3.22;1.73;;;15.00;99.90;;;;;;5058314;28;20688;-82
2023/10/19 08:01:41;;;;;;;3.42;2.13;;;14.90;99.90;;;;;;5059097;28;20224;-80
2023/10/19 08:04:10;;;;;;;3.78;1.90;;;14.90;99.90;;;;;;5053988;28;20213;-80
2023/10/19 08:06:37;;;;;;;4.03;2.45;;;15.00;99.90;;;;;;5063518;28;20225;-81
2023/10/19 08:09:06;;;;;;;3.58;2.47;;;15.00;99.90;;;;;;5060621;28;20206;-80
2023/10/19 08:11:36;;;;;;;2.88;1.92;;;15.00;99.90;;;;;;5057943;28;20190;-81
2023/10/19 08:14:05;;;;;;;3.72;2.22;;;15.00;99.90;;;;;;5073543;28;20205;-81
2023/10/19 08:16:32;;;;;;;5.40;2.10;;;15.10;99.90;;;;;;5059476;28;20220;-81
2023/10/19 08:18:59;;;;;;;5.30;2.13;;;15.10;99.90;;;;;;5075134;28;20197;-80
2023/10/19 08:21:28;;;;;;;3.78;2.33;;;15.10;99.90;;;;;;5077440;28;20220;-81
2023/10/19 08:23:56;;;;;;;2.65;1.70;;;15.10;99.90;;;;;;5062938;28;20197;-80
2023/10/19 08:26:25;;;;;;;4.35;1.95;;;15.10;99.90;;;;;;5063248;28;20722;-80
2023/10/19 08:28:52;;;;;;;4.90;2.13;;;15.10;99.90;;;;;;5056318;28;20205;-81
2023/10/19 08:31:20;;;;;;;3.42;2.20;;;15.10;99.90;;;;;;5056864;28;20205;-80
2023/10/19 08:33:47;;;;;;;3.60;1.88;;;15.20;99.90;;;;;;5062590;28;20209;-81
2023/10/19 08:36:19;;;;;;;2.90;2.05;;;15.20;99.90;;;;;;5069771;28;20235;-80
2023/10/19 08:38:47;;;;;;;3.97;1.90;;;15.30;99.90;;;;;;5060676;28;20216;-80
2023/10/19 08:41:15;;;;;;;4.43;3.10;;;15.60;99.90;;;;;;5063512;28;20210;-80
2023/10/19 08:43:44;;;;;;;4.18;2.28;;;15.60;99.90;;;;;;5065283;28;20216;-80
2023/10/19 08:46:12;;;;;;;3.60;1.83;;;15.80;99.90;;;;;;5067488;28;20217;-80
2023/10/19 08:48:41;;;;;;;3.90;2.67;;;16.00;99.90;;;;;;5059176;28;20305;-81
2023/10/19 08:51:11;;;;;;;4.13;2.00;;;16.10;99.90;;;;;;5059593;28;20209;-82
2023/10/19 08:53:40;;;;;;;2.45;1.83;;;15.90;99.90;;;;;;5064776;28;20209;-81
2023/10/19 08:56:08;;;;;;;5.82;2.13;;;15.70;99.90;;;;;;5068565;28;20229;-81
2023/10/19 08:58:36;;;;;;;6.47;2.08;;;15.60;99.90;;;;;;5061000;28;20201;-81
2023/10/19 09:01:09;;;;;;;3.10;1.65;;;15.60;99.90;;;;;;5059395;28;20592;-80
2023/10/19 09:03:38;;;;;;;5.15;2.00;;;15.60;99.90;;;;;;5061521;28;20202;-81
2023/10/19 09:06:06;;;;;;;5.05;2.15;;;15.60;99.90;;;;;;5063410;28;20221;-82
2023/10/19 09:08:40;;;;;;;2.83;1.73;;;15.60;99.90;;;;;;5058034;28;20208;-82
2023/10/19 09:11:09;;;;;;;2.65;2.00;;;15.70;99.90;;;;;;5055597;28;20208;-81
2023/10/19 09:13:46;;;;;;;6.13;2.40;;;15.70;99.90;;;;;;5064656;28;20209;-81
2023/10/19 09:16:19;;;;;;;3.83;1.65;;;15.70;99.90;;;;;;5055101;28;20229;-82
2023/10/19 09:18:48;;;;;;;4.78;2.05;;;15.80;99.90;;;;;;5061024;28;20201;-82
2023/10/19 09:21:23;;;;;;;3.22;2.00;;;15.80;99.90;;;;;;5058430;28;20224;-82
2023/10/19 09:23:52;;;;;;;6.82;2.13;;;15.80;99.90;;;;;;5052288;28;20202;-81
2023/10/19 09:26:21;;;;;;;4.38;2.15;;;15.80;99.90;;;;;;5049772;28;20228;-81
2023/10/19 09:28:50;;;;;;;2.42;1.70;;;15.80;99.90;;;;;;5049386;28;20201;-81
2023/10/19 09:31:21;;;;;;;3.38;1.80;;;15.80;99.90;;;;;;5062745;28;20565;-81
2023/10/19 09:33:49;;;;;;;5.28;1.92;;;15.80;99.90;;;;;;5058159;28;20208;-82
2023/10/19 09:36:18;;;;;;;4.85;1.80;;;15.90;99.90;;;;;;5068480;28;20226;-83
2023/10/19 09:38:48;;;;;;;3.75;1.70;;;15.90;99.90;;;;;;5055629;28;20205;-82
2023/10/19 09:41:18;;;;;;;4.80;1.88;;;16.00;99.90;;;;;;5062438;28;20568;-81
2023/10/19 09:43:48;;;;;;;4.97;1.77;;;16.00;99.90;;;;;;5060423;28;20197;-82
2023/10/19 09:46:24;;;;;;;3.45;1.55;;;16.00;99.90;;;;;;5072743;28;20218;-80
2023/10/19 09:48:52;;;;;;;4.75;2.13;;;16.10;99.90;;;;;;5078308;28;20203;-81
2023/10/19 09:51:21;;;;;;;2.17;1.70;;;16.30;99.90;;;;;;5065241;28;20224;-81
2023/10/19 09:53:53;;;;;;;5.55;1.92;;;16.30;99.90;;;;;;5064668;28;20205;-82
2023/10/19 09:56:25;;;;;;;5.40;1.80;;;16.40;99.90;;;;;;5063687;28;20221;-82
2023/10/19 09:58:56;;;;;;;4.25;1.77;;;16.40;99.90;;;;;;5089094;28;20198;-82
2023/10/19 10:01:26;;;;;;;3.67;2.10;;;16.40;99.90;;;;;;5063978;28;20590;-82
2023/10/19 10:03:54;;;;;;;1.95;1.58;;;16.40;99.90;;;;;;5073396;28;20205;-81
2023/10/19 10:06:29;;;;;;;3.45;2.03;;;16.40;99.90;;;;;;5073973;28;20226;-81
2023/10/19 10:08:59;;;;;;;6.30;2.20;;;16.50;99.90;;;;;;5069786;28;20215;-81
2023/10/19 10:11:28;;;;;;;7.22;2.25;;;16.50;99.90;;;;;;5060082;28;20206;-80
2023/10/19 10:13:57;;;;;;;2.38;1.70;;;16.60;99.90;;;;;;5068973;28;20209;-80
2023/10/19 10:16:26;;;;;;;5.65;2.17;;;16.60;99.90;;;;;;5076771;28;20222;-80
2023/10/19 10:19:00;;;;;;;3.58;1.98;;;16.60;99.90;;;;;;5077031;28;20185;-81
2023/10/19 10:21:28;;;;;;;8.15;2.40;;;16.50;99.90;;;;;;5069147;28;20206;-81
2023/10/19 10:23:57;;;;;;;5.35;2.00;;;16.50;99.90;;;;;;5057850;28;20193;-81
2023/10/19 10:26:26;;;;;;;4.25;2.05;;;16.50;99.90;;;;;;5053968;28;20236;-81
2023/10/19 10:29:23;;;;;;;4.13;2.05;;;16.60;99.90;;;;;;5060753;28;20213;-81
2023/10/19 10:31:52;;;;;;;2.60;1.77;;;16.60;99.90;;;;;;5046954;28;20197;-81
2023/10/19 10:34:45;;;;;;;4.40;2.00;;;16.60;99.90;;;;;;5052755;28;20706;-81
2023/10/19 10:37:14;;;;;;;4.43;1.98;;;16.70;99.90;;;;;;5049146;28;20268;-81
2023/10/19 10:39:44;;;;;;;3.30;1.67;;;16.70;99.90;;;;;;5053053;28;20202;-82
2023/10/19 10:42:12;;;;;;;5.85;2.22;;;16.80;99.90;;;;;;5061738;28;20221;-81
2023/10/19 10:44:40;;;;;;;4.50;2.60;;;16.90;99.90;;;;;;5060772;28;20221;-81
2023/10/19 10:47:21;;;;;;;4.03;1.63;;;17.00;99.90;;;;;;5067490;28;20241;-81
2023/10/19 10:49:50;;;;;;;5.25;2.30;;;17.00;99.90;;;;;;5066552;28;20232;-81
2023/10/19 10:52:25;;;;;;;4.50;2.00;;;17.00;99.90;;;;;;5057763;28;20190;-82
2023/10/19 10:54:53;;;;;;;5.07;1.95;;;17.00;99.90;;;;;;5056888;28;20192;-81
2023/10/19 10:57:23;;;;;;;3.13;1.92;;;17.10;99.90;;;;;;5061745;28;20202;-80
2023/10/19 11:00:03;;;;;;;4.25;1.50;;;17.20;99.90;;;;;;5053428;28;20217;-81
2023/10/19 11:02:33;;;;;;;6.32;1.90;;;17.60;99.90;;;;;;5060158;28;20214;-81
2023/10/19 11:05:00;;;;;;;4.97;2.03;;;17.90;99.90;;;;;;5055120;28;20212;-81
2023/10/19 11:07:28;;;;;;;3.53;1.65;;;17.90;99.90;;;;;;5067917;28;20189;-81
2023/10/19 11:09:55;;;;;;;4.55;2.08;;;18.00;99.90;;;;;;5062134;28;20197;-81
2023/10/19 11:12:24;;;;;;;4.53;1.63;;;18.00;99.90;;;;;;5060688;28;20205;-81
2023/10/19 11:14:55;;;;;;;3.83;1.65;;;18.20;99.90;;;;;;5059924;28;20198;-81
2023/10/19 11:17:28;;;;;;;5.57;1.98;;;18.20;99.90;;;;;;5062099;28;20199;-81
2023/10/19 11:19:57;;;;;;;4.25;2.03;;;18.20;99.90;;;;;;5058149;28;20201;-81
2023/10/19 11:22:26;;;;;;;5.72;1.55;;;18.30;99.90;;;;;;5057240;28;20213;-81
2023/10/19 11:24:54;;;;;;;6.28;1.80;;;18.20;99.90;;;;;;5059542;28;20206;-81
2023/10/19 11:27:28;;;;;;;4.78;1.70;;;18.10;99.90;;;;;;5061852;28;20210;-81
2023/10/19 11:29:57;;;;;;;4.28;1.38;;;18.00;99.90;;;;;;5067142;28;20208;-81
2023/10/19 11:32:25;;;;;;;3.47;1.58;;;17.90;99.90;;;;;;5063114;28;20198;-80
2023/10/19 11:34:54;;;;;;;7.57;2.33;;;18.00;99.90;;;;;;5058821;28;20202;-78
2023/10/19 11:37:48;;;;;;;6.32;2.03;;;18.10;99.90;;;;;;5054308;28;20236;-79
2023/10/19 11:40:22;;;;;;;7.47;2.85;;;18.00;99.90;;;;;;5050710;28;20671;-79
2023/10/19 11:42:56;;;;;;;8.05;2.95;;;18.00;99.90;;;;;;5059196;28;20228;-78
2023/10/19 11:45:36;;;;;;;4.68;2.20;;;18.00;99.90;;;;;;5055713;28;20208;-79
2023/10/19 11:48:07;;;;;;;6.43;2.33;;;17.90;99.90;;;;;;5050840;28;20208;-81
2023/10/19 11:50:34;;;;;;;4.50;2.13;;;17.90;99.90;;;;;;5054704;28;20206;-81
2023/10/19 11:53:05;;;;;;;5.25;1.55;;;18.00;99.90;;;;;;5052354;28;20214;-81
2023/10/19 11:55:32;;;;;;;4.50;1.60;;;17.90;99.90;;;;;;5056081;28;20574;-82
2023/10/19 11:58:00;;;;;;;2.85;1.33;;;18.10;99.90;;;;;;5068729;28;20205;-81
2023/10/19 12:00:33;;;;;;;5.82;1.60;;;18.60;99.90;;;;;;5070801;28;20209;-81
2023/10/19 12:03:01;;;;;;;4.93;1.52;;;18.60;99.90;;;;;;5049968;28;20213;-81
2023/10/19 12:05:28;;;;;;;4.15;1.30;;;18.80;99.90;;;;;;5056577;28;20217;-82
2023/10/19 12:07:56;;;;;;;5.63;1.67;;;19.00;99.90;;;;;;5051304;28;20202;-82
2023/10/19 12:10:30;;;;;;;4.40;1.48;;;18.70;99.90;;;;;;5073108;28;20201;-82
2023/10/19 12:13:01;;;;;;;5.68;1.70;;;19.00;99.90;;;;;;5060777;28;20197;-81
2023/10/19 12:15:29;;;;;;;5.35;1.75;;;18.70;99.90;;;;;;5042936;28;20221;-81
2023/10/19 12:17:57;;;;;;;6.00;1.92;;;18.60;99.90;;;;;;5063240;28;20212;-82
2023/10/19 12:20:24;;;;;;;4.18;1.58;;;18.60;99.90;;;;;;5056228;28;20201;-81
2023/10/19 12:22:53;;;;;;;4.50;1.45;;;18.60;99.90;;;;;;5056179;28;20240;-82
2023/10/19 12:25:28;;;;;;;4.88;1.55;;;18.70;99.90;;;;;;5108134;23;20240;-82
2023/10/19 12:27:58;;;;;;;4.28;1.80;;;18.80;99.90;;;;;;5011933;28;20199;-82
2023/10/19 12:30:31;;;;;;;6.50;1.77;;;18.50;99.90;;;;;;5016537;28;20211;-82
2023/10/19 12:33:01;;;;;;;5.68;1.55;;;18.30;99.90;;;;;;5019170;28;20731;-82
2023/10/19 12:35:44;;;;;;;5.00;1.75;;;18.30;99.90;;;;;;5003056;28;20203;-82
2023/10/19 12:38:16;;;;;;;4.93;1.48;;;18.20;99.90;;;;;;5017697;28;20569;-82
2023/10/19 12:40:58;;;;;;;8.45;2.13;;;18.10;99.90;;;;;;5016555;28;20204;-82
2023/10/19 12:43:34;;;;;;;8.13;2.03;;;18.10;99.90;;;;;;5013018;28;20211;-82
2023/10/19 12:46:02;;;;;;;5.05;2.35;;;18.00;99.90;;;;;;5018446;28;20219;-82
2023/10/19 12:48:33;;;;;;;5.90;1.98;;;18.10;99.90;;;;;;5004608;28;20200;-83
2023/10/19 12:51:01;;;;;;;4.80;1.98;;;18.00;99.90;;;;;;5015216;28;20221;-83
2023/10/19 12:53:29;;;;;;;4.50;1.90;;;18.00;99.90;;;;;;5029725;28;20210;-85
2023/10/19 12:55:56;;;;;;;4.18;1.90;;;18.00;99.90;;;;;;5010410;28;20226;-83
2023/10/19 12:58:27;;;;;;;3.35;1.90;;;18.00;99.90;;;;;;5019448;28;20575;-85
2023/10/19 13:00:58;;;;;;;4.05;2.00;;;17.90;99.90;;;;;;5003468;28;20211;-85
2023/10/19 13:03:28;;;;;;;5.10;2.00;;;17.90;99.90;;;;;;5001345;28;20219;-84